sensor_id;sensor_type;location;lat;lon;timestamp;pressure;altitude;pressure_sealevel;temperature
19040;BMP180;9652;49.014;12.052;2023-03-01T00:00:07;98609.00;;;4.60
19040;BMP180;9652;49.014;12.052;2023-03-01T00:02:37;98601.00;;;4.60
19040;BMP180;9652;49.014;12.052;2023-03-01T00:05:05;98607.00;;;4.50
19040;BMP180;9652;49.014;12.052;2023-03-01T00:07:33;98597.00;;;4.50
19040;BMP180;9652;49.014;12.052;2023-03-01T00:10:00;98613.00;;;4.50
19040;BMP180;9652;49.014;12.052;2023-03-01T00:12:28;98621.00;;;4.50
19040;BMP180;9652;49.014;12.052;2023-03-01T00:14:55;98616.00;;;4.50
19040;BMP180;9652;49.014;12.052;2023-03-01T00:17:22;98623.00;;;4.50
19040;BMP180;9652;49.014;12.052;2023-03-01T00:19:49;98618.00;;;4.50
19040;BMP180;9652;49.014;12.052;2023-03-01T00:22:16;98619.00;;;4.50
19040;BMP180;9652;49.014;12.052;2023-03-01T00:24:43;98609.00;;;4.50
19040;BMP180;9652;49.014;12.052;2023-03-01T00:27:10;98603.00;;;4.50
19040;BMP180;9652;49.014;12.052;2023-03-01T00:29:39;98603.00;;;4.50
19040;BMP180;9652;49.014;12.052;2023-03-01T00:32:06;98610.00;;;4.40
19040;BMP180;9652;49.014;12.052;2023-03-01T00:34:33;98601.00;;;4.40
19040;BMP180;9652;49.014;12.052;2023-03-01T00:37:00;98603.00;;;4.30
19040;BMP180;9652;49.014;12.052;2023-03-01T00:39:32;98599.00;;;4.40
19040;BMP180;9652;49.014;12.052;2023-03-01T00:41:59;98608.00;;;4.40
19040;BMP180;9652;49.014;12.052;2023-03-01T00:44:26;98588.00;;;4.30
19040;BMP180;9652;49.014;12.052;2023-03-01T00:46:55;98602.00;;;4.30
19040;BMP180;9652;49.014;12.052;2023-03-01T00:49:22;98600.00;;;4.30
19040;BMP180;9652;49.014;12.052;2023-03-01T00:51:53;98587.00;;;4.30
19040;BMP180;9652;49.014;12.052;2023-03-01T00:54:23;98593.00;;;4.20
19040;BMP180;9652;49.014;12.052;2023-03-01T00:56:50;98598.00;;;4.30
19040;BMP180;9652;49.014;12.052;2023-03-01T00:59:17;98601.00;;;4.20
19040;BMP180;9652;49.014;12.052;2023-03-01T01:01:44;98592.00;;;4.20
19040;BMP180;9652;49.014;12.052;2023-03-01T01:04:13;98591.00;;;4.30
19040;BMP180;9652;49.014;12.052;2023-03-01T01:06:43;98591.00;;;4.30
19040;BMP180;9652;49.014;12.052;2023-03-01T01:09:14;98584.00;;;4.30
19040;BMP180;9652;49.014;12.052;2023-03-01T01:11:44;98579.00;;;4.30
19040;BMP180;9652;49.014;12.052;2023-03-01T01:14:13;98585.00;;;4.30
19040;BMP180;9652;49.014;12.052;2023-03-01T01:16:40;98570.00;;;4.30
19040;BMP180;9652;49.014;12.052;2023-03-01T01:19:09;98579.00;;;4.20
19040;BMP180;9652;49.014;12.052;2023-03-01T01:21:38;98572.00;;;4.20
19040;BMP180;9652;49.014;12.052;2023-03-01T01:24:06;98575.00;;;4.20
19040;BMP180;9652;49.014;12.052;2023-03-01T01:26:34;98548.00;;;4.20
19040;BMP180;9652;49.014;12.052;2023-03-01T01:29:04;98552.00;;;4.20
19040;BMP180;9652;49.014;12.052;2023-03-01T01:31:33;98568.00;;;4.20
19040;BMP180;9652;49.014;12.052;2023-03-01T01:34:04;98557.00;;;4.20
19040;BMP180;9652;49.014;12.052;2023-03-01T01:36:32;98534.00;;;4.20
19040;BMP180;9652;49.014;12.052;2023-03-01T01:39:01;98557.00;;;4.10
19040;BMP180;9652;49.014;12.052;2023-03-01T01:41:29;98556.00;;;4.10
19040;BMP180;9652;49.014;12.052;2023-03-01T01:44:16;98542.00;;;4.10
19040;BMP180;9652;49.014;12.052;2023-03-01T01:46:49;98534.00;;;4.10
19040;BMP180;9652;49.014;12.052;2023-03-01T01:49:25;98549.00;;;4.10
19040;BMP180;9652;49.014;12.052;2023-03-01T01:52:02;98526.00;;;4.00
19040;BMP180;9652;49.014;12.052;2023-03-01T01:54:40;98537.00;;;4.00
19040;BMP180;9652;49.014;12.052;2023-03-01T01:57:14;98529.00;;;4.00
19040;BMP180;9652;49.014;12.052;2023-03-01T01:59:46;98529.00;;;3.90
19040;BMP180;9652;49.014;12.052;2023-03-01T02:02:15;98530.00;;;3.90
19040;BMP180;9652;49.014;12.052;2023-03-01T02:04:43;98538.00;;;3.90
19040;BMP180;9652;49.014;12.052;2023-03-01T02:07:16;98527.00;;;3.80
19040;BMP180;9652;49.014;12.052;2023-03-01T02:09:50;98525.00;;;3.80
19040;BMP180;9652;49.014;12.052;2023-03-01T02:12:22;98521.00;;;3.70
19040;BMP180;9652;49.014;12.052;2023-03-01T02:14:50;98527.00;;;3.70
19040;BMP180;9652;49.014;12.052;2023-03-01T02:17:18;98523.00;;;3.70
19040;BMP180;9652;49.014;12.052;2023-03-01T02:20:00;98511.00;;;3.60
19040;BMP180;9652;49.014;12.052;2023-03-01T02:22:35;98520.00;;;3.60
19040;BMP180;9652;49.014;12.052;2023-03-01T02:25:30;98511.00;;;3.50
19040;BMP180;9652;49.014;12.052;2023-03-01T02:28:05;98493.00;;;3.50
19040;BMP180;9652;49.014;12.052;2023-03-01T02:30:36;98503.00;;;3.50
19040;BMP180;9652;49.014;12.052;2023-03-01T02:33:25;98484.00;;;3.40
19040;BMP180;9652;49.014;12.052;2023-03-01T02:35:53;98497.00;;;3.40
19040;BMP180;9652;49.014;12.052;2023-03-01T02:38:22;98496.00;;;3.40
19040;BMP180;9652;49.014;12.052;2023-03-01T02:40:51;98505.00;;;3.40
19040;BMP180;9652;49.014;12.052;2023-03-01T02:43:21;98496.00;;;3.40
19040;BMP180;9652;49.014;12.052;2023-03-01T02:45:52;98474.00;;;3.30
19040;BMP180;9652;49.014;12.052;2023-03-01T02:48:20;98501.00;;;3.30
19040;BMP180;9652;49.014;12.052;2023-03-01T02:51:04;98502.00;;;3.30
19040;BMP180;9652;49.014;12.052;2023-03-01T02:53:41;98497.00;;;3.30
19040;BMP180;9652;49.014;12.052;2023-03-01T02:56:13;98493.00;;;3.30
19040;BMP180;9652;49.014;12.052;2023-03-01T02:58:42;98486.00;;;3.20
19040;BMP180;9652;49.014;12.052;2023-03-01T03:01:15;98494.00;;;3.20
19040;BMP180;9652;49.014;12.052;2023-03-01T03:03:42;98478.00;;;3.20
19040;BMP180;9652;49.014;12.052;2023-03-01T03:06:10;98494.00;;;3.20
19040;BMP180;9652;49.014;12.052;2023-03-01T03:08:38;98476.00;;;3.10
19040;BMP180;9652;49.014;12.052;2023-03-01T03:11:05;98486.00;;;3.10
19040;BMP180;9652;49.014;12.052;2023-03-01T03:13:32;98484.00;;;3.10
19040;BMP180;9652;49.014;12.052;2023-03-01T03:15:59;98489.00;;;3.10
19040;BMP180;9652;49.014;12.052;2023-03-01T03:18:27;98480.00;;;3.10
19040;BMP180;9652;49.014;12.052;2023-03-01T03:20:55;98477.00;;;3.00
19040;BMP180;9652;49.014;12.052;2023-03-01T03:23:22;98474.00;;;3.00
19040;BMP180;9652;49.014;12.052;2023-03-01T03:25:50;98471.00;;;3.00
19040;BMP180;9652;49.014;12.052;2023-03-01T03:28:18;98471.00;;;3.00
19040;BMP180;9652;49.014;12.052;2023-03-01T03:30:45;98461.00;;;3.00
19040;BMP180;9652;49.014;12.052;2023-03-01T03:33:12;98462.00;;;3.00
19040;BMP180;9652;49.014;12.052;2023-03-01T03:35:45;98463.00;;;2.90
19040;BMP180;9652;49.014;12.052;2023-03-01T03:38:15;98465.00;;;2.90
19040;BMP180;9652;49.014;12.052;2023-03-01T03:40:46;98458.00;;;2.90
19040;BMP180;9652;49.014;12.052;2023-03-01T03:43:16;98460.00;;;2.90
19040;BMP180;9652;49.014;12.052;2023-03-01T03:45:44;98467.00;;;2.80
19040;BMP180;9652;49.014;12.052;2023-03-01T03:48:12;98460.00;;;2.90
19040;BMP180;9652;49.014;12.052;2023-03-01T03:50:46;98467.00;;;2.90
19040;BMP180;9652;49.014;12.052;2023-03-01T03:53:13;98468.00;;;2.80
19040;BMP180;9652;49.014;12.052;2023-03-01T03:55:40;98461.00;;;2.80
19040;BMP180;9652;49.014;12.052;2023-03-01T03:58:10;98437.00;;;2.80
19040;BMP180;9652;49.014;12.052;2023-03-01T04:00:40;98466.00;;;2.70
19040;BMP180;9652;49.014;12.052;2023-03-01T04:03:09;98430.00;;;2.70
19040;BMP180;9652;49.014;12.052;2023-03-01T04:05:38;98448.00;;;2.70
19040;BMP180;9652;49.014;12.052;2023-03-01T04:08:08;98456.00;;;2.70
19040;BMP180;9652;49.014;12.052;2023-03-01T04:10:39;98452.00;;;2.70
19040;BMP180;9652;49.014;12.052;2023-03-01T04:13:09;98443.00;;;2.70
19040;BMP180;9652;49.014;12.052;2023-03-01T04:15:37;98436.00;;;2.60
19040;BMP180;9652;49.014;12.052;2023-03-01T04:18:05;98409.00;;;2.60
19040;BMP180;9652;49.014;12.052;2023-03-01T04:20:35;98425.00;;;2.60
19040;BMP180;9652;49.014;12.052;2023-03-01T04:23:05;98447.00;;;2.60
19040;BMP180;9652;49.014;12.052;2023-03-01T04:25:42;98460.00;;;2.60
19040;BMP180;9652;49.014;12.052;2023-03-01T04:28:10;98452.00;;;2.60
19040;BMP180;9652;49.014;12.052;2023-03-01T04:30:38;98452.00;;;2.60
19040;BMP180;9652;49.014;12.052;2023-03-01T04:33:08;98453.00;;;2.30
19040;BMP180;9652;49.014;12.052;2023-03-01T04:35:36;98430.00;;;2.50
19040;BMP180;9652;49.014;12.052;2023-03-01T04:38:05;98452.00;;;2.50
19040;BMP180;9652;49.014;12.052;2023-03-01T04:40:33;98444.00;;;2.50
19040;BMP180;9652;49.014;12.052;2023-03-01T04:43:03;98451.00;;;2.50
19040;BMP180;9652;49.014;12.052;2023-03-01T04:45:32;98447.00;;;2.50
19040;BMP180;9652;49.014;12.052;2023-03-01T04:48:02;98458.00;;;2.40
19040;BMP180;9652;49.014;12.052;2023-03-01T04:50:30;98453.00;;;2.40
19040;BMP180;9652;49.014;12.052;2023-03-01T04:52:57;98455.00;;;2.40
19040;BMP180;9652;49.014;12.052;2023-03-01T04:55:26;98425.00;;;2.40
19040;BMP180;9652;49.014;12.052;2023-03-01T04:57:53;98461.00;;;2.40
19040;BMP180;9652;49.014;12.052;2023-03-01T05:00:22;98457.00;;;2.40
19040;BMP180;9652;49.014;12.052;2023-03-01T05:02:52;98454.00;;;2.40
19040;BMP180;9652;49.014;12.052;2023-03-01T05:05:22;98456.00;;;2.40
19040;BMP180;9652;49.014;12.052;2023-03-01T05:07:53;98449.00;;;2.30
19040;BMP180;9652;49.014;12.052;2023-03-01T05:10:20;98456.00;;;2.30
19040;BMP180;9652;49.014;12.052;2023-03-01T05:12:48;98429.00;;;2.30
19040;BMP180;9652;49.014;12.052;2023-03-01T05:15:15;98446.00;;;2.30
19040;BMP180;9652;49.014;12.052;2023-03-01T05:17:43;98449.00;;;2.30
19040;BMP180;9652;49.014;12.052;2023-03-01T05:20:12;98442.00;;;2.30
19040;BMP180;9652;49.014;12.052;2023-03-01T05:22:39;98446.00;;;2.10
19040;BMP180;9652;49.014;12.052;2023-03-01T05:25:07;98445.00;;;2.30
19040;BMP180;9652;49.014;12.052;2023-03-01T05:27:34;98445.00;;;2.30
19040;BMP180;9652;49.014;12.052;2023-03-01T05:30:02;98451.00;;;2.20
19040;BMP180;9652;49.014;12.052;2023-03-01T05:32:43;98384.00;;;2.20
19040;BMP180;9652;49.014;12.052;2023-03-01T05:35:11;98443.00;;;2.20
19040;BMP180;9652;49.014;12.052;2023-03-01T05:37:41;98433.00;;;2.10
19040;BMP180;9652;49.014;12.052;2023-03-01T05:40:12;98425.00;;;2.20
19040;BMP180;9652;49.014;12.052;2023-03-01T05:42:47;98425.00;;;2.20
19040;BMP180;9652;49.014;12.052;2023-03-01T05:45:16;98432.00;;;2.20
19040;BMP180;9652;49.014;12.052;2023-03-01T05:47:47;98409.00;;;2.10
19040;BMP180;9652;49.014;12.052;2023-03-01T05:50:17;98438.00;;;2.10
19040;BMP180;9652;49.014;12.052;2023-03-01T05:52:47;98435.00;;;2.10
19040;BMP180;9652;49.014;12.052;2023-03-01T05:55:15;98436.00;;;2.10
19040;BMP180;9652;49.014;12.052;2023-03-01T05:57:42;98430.00;;;2.10
19040;BMP180;9652;49.014;12.052;2023-03-01T06:00:13;98440.00;;;2.10
19040;BMP180;9652;49.014;12.052;2023-03-01T06:02:41;98415.00;;;2.10
19040;BMP180;9652;49.014;12.052;2023-03-01T06:05:12;98426.00;;;2.10
19040;BMP180;9652;49.014;12.052;2023-03-01T06:07:39;98441.00;;;2.10
19040;BMP180;9652;49.014;12.052;2023-03-01T06:10:09;98432.00;;;2.00
19040;BMP180;9652;49.014;12.052;2023-03-01T06:12:38;98393.00;;;2.00
19040;BMP180;9652;49.014;12.052;2023-03-01T06:15:07;98438.00;;;2.10
19040;BMP180;9652;49.014;12.052;2023-03-01T06:17:38;98437.00;;;2.10
19040;BMP180;9652;49.014;12.052;2023-03-01T06:20:11;98439.00;;;2.10
19040;BMP180;9652;49.014;12.052;2023-03-01T06:22:39;98433.00;;;2.10
19040;BMP180;9652;49.014;12.052;2023-03-01T06:25:08;98435.00;;;2.10
19040;BMP180;9652;49.014;12.052;2023-03-01T06:27:35;98423.00;;;2.10
19040;BMP180;9652;49.014;12.052;2023-03-01T06:30:04;98418.00;;;2.20
19040;BMP180;9652;49.014;12.052;2023-03-01T06:32:31;98447.00;;;2.20
19040;BMP180;9652;49.014;12.052;2023-03-01T06:34:58;98433.00;;;2.20
19040;BMP180;9652;49.014;12.052;2023-03-01T06:37:26;98439.00;;;2.20
19040;BMP180;9652;49.014;12.052;2023-03-01T06:39:53;98438.00;;;2.30
19040;BMP180;9652;49.014;12.052;2023-03-01T06:42:20;98425.00;;;2.30
19040;BMP180;9652;49.014;12.052;2023-03-01T06:44:47;98425.00;;;2.30
19040;BMP180;9652;49.014;12.052;2023-03-01T06:47:14;98439.00;;;2.40
19040;BMP180;9652;49.014;12.052;2023-03-01T06:49:41;98426.00;;;2.40
19040;BMP180;9652;49.014;12.052;2023-03-01T06:52:08;98424.00;;;2.40
19040;BMP180;9652;49.014;12.052;2023-03-01T06:54:37;98433.00;;;2.50
19040;BMP180;9652;49.014;12.052;2023-03-01T06:57:04;98427.00;;;2.50
19040;BMP180;9652;49.014;12.052;2023-03-01T06:59:31;98424.00;;;2.50
19040;BMP180;9652;49.014;12.052;2023-03-01T07:01:58;98422.00;;;2.50
19040;BMP180;9652;49.014;12.052;2023-03-01T07:04:25;98435.00;;;2.60
19040;BMP180;9652;49.014;12.052;2023-03-01T07:06:54;98435.00;;;2.60
19040;BMP180;9652;49.014;12.052;2023-03-01T07:09:22;98439.00;;;2.60
19040;BMP180;9652;49.014;12.052;2023-03-01T07:11:50;98438.00;;;2.70
19040;BMP180;9652;49.014;12.052;2023-03-01T07:14:18;98426.00;;;2.70
19040;BMP180;9652;49.014;12.052;2023-03-01T07:16:45;98434.00;;;2.80
19040;BMP180;9652;49.014;12.052;2023-03-01T07:19:12;98428.00;;;2.80
19040;BMP180;9652;49.014;12.052;2023-03-01T07:21:39;98439.00;;;2.90
19040;BMP180;9652;49.014;12.052;2023-03-01T07:24:07;98430.00;;;2.90
19040;BMP180;9652;49.014;12.052;2023-03-01T07:26:34;98424.00;;;2.70
19040;BMP180;9652;49.014;12.052;2023-03-01T07:29:05;98391.00;;;3.00
19040;BMP180;9652;49.014;12.052;2023-03-01T07:31:33;98423.00;;;3.10
19040;BMP180;9652;49.014;12.052;2023-03-01T07:34:00;98435.00;;;3.10
19040;BMP180;9652;49.014;12.052;2023-03-01T07:36:28;98418.00;;;3.20
19040;BMP180;9652;49.014;12.052;2023-03-01T07:38:55;98407.00;;;3.20
19040;BMP180;9652;49.014;12.052;2023-03-01T07:41:23;98432.00;;;3.30
19040;BMP180;9652;49.014;12.052;2023-03-01T07:43:50;98432.00;;;3.30
19040;BMP180;9652;49.014;12.052;2023-03-01T07:46:19;98412.00;;;3.40
19040;BMP180;9652;49.014;12.052;2023-03-01T07:48:46;98416.00;;;3.40
19040;BMP180;9652;49.014;12.052;2023-03-01T07:51:13;98415.00;;;3.50
19040;BMP180;9652;49.014;12.052;2023-03-01T07:53:40;98415.00;;;3.50
19040;BMP180;9652;49.014;12.052;2023-03-01T07:56:10;98420.00;;;3.60
19040;BMP180;9652;49.014;12.052;2023-03-01T07:58:39;98407.00;;;3.70
19040;BMP180;9652;49.014;12.052;2023-03-01T08:01:09;98404.00;;;3.70
19040;BMP180;9652;49.014;12.052;2023-03-01T08:03:38;98418.00;;;3.80
19040;BMP180;9652;49.014;12.052;2023-03-01T08:06:09;98416.00;;;3.80
19040;BMP180;9652;49.014;12.052;2023-03-01T08:08:37;98419.00;;;3.90
19040;BMP180;9652;49.014;12.052;2023-03-01T08:11:06;98406.00;;;4.00
19040;BMP180;9652;49.014;12.052;2023-03-01T08:13:34;98419.00;;;4.00
19040;BMP180;9652;49.014;12.052;2023-03-01T08:16:03;98405.00;;;4.10
19040;BMP180;9652;49.014;12.052;2023-03-01T08:18:31;98403.00;;;4.00
19040;BMP180;9652;49.014;12.052;2023-03-01T08:21:03;98388.00;;;4.20
19040;BMP180;9652;49.014;12.052;2023-03-01T08:23:31;98395.00;;;4.30
19040;BMP180;9652;49.014;12.052;2023-03-01T08:26:08;98380.00;;;4.40
19040;BMP180;9652;49.014;12.052;2023-03-01T08:28:35;98387.00;;;4.50
19040;BMP180;9652;49.014;12.052;2023-03-01T08:31:04;98386.00;;;4.50
19040;BMP180;9652;49.014;12.052;2023-03-01T08:33:39;98392.00;;;4.60
19040;BMP180;9652;49.014;12.052;2023-03-01T08:36:08;98399.00;;;4.60
19040;BMP180;9652;49.014;12.052;2023-03-01T08:38:35;98374.00;;;4.70
19040;BMP180;9652;49.014;12.052;2023-03-01T08:41:03;98371.00;;;4.80
19040;BMP180;9652;49.014;12.052;2023-03-01T08:43:31;98390.00;;;4.90
19040;BMP180;9652;49.014;12.052;2023-03-01T08:45:58;98395.00;;;5.00
19040;BMP180;9652;49.014;12.052;2023-03-01T08:48:27;98382.00;;;5.00
19040;BMP180;9652;49.014;12.052;2023-03-01T08:50:54;98355.00;;;5.10
19040;BMP180;9652;49.014;12.052;2023-03-01T08:53:23;98376.00;;;5.20
19040;BMP180;9652;49.014;12.052;2023-03-01T08:55:50;98356.00;;;5.30
19040;BMP180;9652;49.014;12.052;2023-03-01T08:58:17;98370.00;;;5.40
19040;BMP180;9652;49.014;12.052;2023-03-01T09:00:44;98376.00;;;5.40
19040;BMP180;9652;49.014;12.052;2023-03-01T09:03:11;98357.00;;;5.50
19040;BMP180;9652;49.014;12.052;2023-03-01T09:05:38;98363.00;;;5.60
19040;BMP180;9652;49.014;12.052;2023-03-01T09:08:05;98354.00;;;5.60
19040;BMP180;9652;49.014;12.052;2023-03-01T09:10:38;98352.00;;;5.70
19040;BMP180;9652;49.014;12.052;2023-03-01T09:13:06;98355.00;;;5.80
19040;BMP180;9652;49.014;12.052;2023-03-01T09:15:33;98340.00;;;5.90
19040;BMP180;9652;49.014;12.052;2023-03-01T09:18:00;98318.00;;;6.00
19040;BMP180;9652;49.014;12.052;2023-03-01T09:20:27;98346.00;;;6.10
19040;BMP180;9652;49.014;12.052;2023-03-01T09:22:54;98339.00;;;6.20
19040;BMP180;9652;49.014;12.052;2023-03-01T09:25:21;98335.00;;;6.30
19040;BMP180;9652;49.014;12.052;2023-03-01T09:27:52;98331.00;;;6.40
19040;BMP180;9652;49.014;12.052;2023-03-01T09:30:20;98341.00;;;6.50
19040;BMP180;9652;49.014;12.052;2023-03-01T09:32:47;98317.00;;;6.50
19040;BMP180;9652;49.014;12.052;2023-03-01T09:35:14;98324.00;;;6.60
19040;BMP180;9652;49.014;12.052;2023-03-01T09:37:41;98320.00;;;6.70
19040;BMP180;9652;49.014;12.052;2023-03-01T09:40:15;98320.00;;;6.70
19040;BMP180;9652;49.014;12.052;2023-03-01T09:42:54;98326.00;;;6.80
19040;BMP180;9652;49.014;12.052;2023-03-01T09:45:33;98313.00;;;6.80
19040;BMP180;9652;49.014;12.052;2023-03-01T09:48:04;98321.00;;;7.00
19040;BMP180;9652;49.014;12.052;2023-03-01T09:50:39;98326.00;;;7.00
19040;BMP180;9652;49.014;12.052;2023-03-01T09:53:15;98321.00;;;7.10
19040;BMP180;9652;49.014;12.052;2023-03-01T09:55:47;98331.00;;;7.20
19040;BMP180;9652;49.014;12.052;2023-03-01T09:58:35;98322.00;;;7.30
19040;BMP180;9652;49.014;12.052;2023-03-01T10:01:25;98335.00;;;7.40
19040;BMP180;9652;49.014;12.052;2023-03-01T10:04:31;98320.00;;;7.40
19040;BMP180;9652;49.014;12.052;2023-03-01T10:07:20;98313.00;;;7.50
19040;BMP180;9652;49.014;12.052;2023-03-01T10:09:48;98311.00;;;7.50
19040;BMP180;9652;49.014;12.052;2023-03-01T10:12:19;98314.00;;;7.50
19040;BMP180;9652;49.014;12.052;2023-03-01T10:14:58;98304.00;;;7.70
19040;BMP180;9652;49.014;12.052;2023-03-01T10:17:35;98299.00;;;7.70
19040;BMP180;9652;49.014;12.052;2023-03-01T10:20:18;98293.00;;;7.80
19040;BMP180;9652;49.014;12.052;2023-03-01T10:22:45;98288.00;;;7.90
19040;BMP180;9652;49.014;12.052;2023-03-01T10:25:26;98293.00;;;7.80
19040;BMP180;9652;49.014;12.052;2023-03-01T10:28:07;98286.00;;;8.00
19040;BMP180;9652;49.014;12.052;2023-03-01T10:30:40;98274.00;;;8.10
19040;BMP180;9652;49.014;12.052;2023-03-01T10:33:17;98280.00;;;8.10
19040;BMP180;9652;49.014;12.052;2023-03-01T10:35:47;98268.00;;;8.20
19040;BMP180;9652;49.014;12.052;2023-03-01T10:38:16;98263.00;;;8.30
19040;BMP180;9652;49.014;12.052;2023-03-01T10:40:56;98258.00;;;8.30
19040;BMP180;9652;49.014;12.052;2023-03-01T10:43:25;98257.00;;;8.40
19040;BMP180;9652;49.014;12.052;2023-03-01T10:45:54;98261.00;;;8.50
19040;BMP180;9652;49.014;12.052;2023-03-01T10:48:24;98256.00;;;8.50
19040;BMP180;9652;49.014;12.052;2023-03-01T10:51:06;98253.00;;;8.60
19040;BMP180;9652;49.014;12.052;2023-03-01T10:53:36;98242.00;;;8.60
19040;BMP180;9652;49.014;12.052;2023-03-01T10:56:07;98245.00;;;8.70
19040;BMP180;9652;49.014;12.052;2023-03-01T10:58:36;98241.00;;;8.70
19040;BMP180;9652;49.014;12.052;2023-03-01T11:01:24;98213.00;;;8.80
19040;BMP180;9652;49.014;12.052;2023-03-01T11:04:11;98243.00;;;8.80
19040;BMP180;9652;49.014;12.052;2023-03-01T11:06:40;98233.00;;;8.80
19040;BMP180;9652;49.014;12.052;2023-03-01T11:09:15;98215.00;;;9.00
19040;BMP180;9652;49.014;12.052;2023-03-01T11:11:43;98225.00;;;9.00
19040;BMP180;9652;49.014;12.052;2023-03-01T11:14:17;98210.00;;;9.10
19040;BMP180;9652;49.014;12.052;2023-03-01T11:16:58;98215.00;;;9.10
19040;BMP180;9652;49.014;12.052;2023-03-01T11:19:26;98207.00;;;9.20
19040;BMP180;9652;49.014;12.052;2023-03-01T11:22:03;98195.00;;;9.20
19040;BMP180;9652;49.014;12.052;2023-03-01T11:24:38;98206.00;;;9.30
19040;BMP180;9652;49.014;12.052;2023-03-01T11:27:17;98196.00;;;9.30
19040;BMP180;9652;49.014;12.052;2023-03-01T11:29:51;98195.00;;;9.40
19040;BMP180;9652;49.014;12.052;2023-03-01T11:32:26;98195.00;;;9.40
19040;BMP180;9652;49.014;12.052;2023-03-01T11:34:59;98191.00;;;9.40
19040;BMP180;9652;49.014;12.052;2023-03-01T11:37:36;98175.00;;;9.50
19040;BMP180;9652;49.014;12.052;2023-03-01T11:40:14;98187.00;;;9.50
19040;BMP180;9652;49.014;12.052;2023-03-01T11:43:01;98173.00;;;9.50
19040;BMP180;9652;49.014;12.052;2023-03-01T11:45:47;98175.00;;;9.60
19040;BMP180;9652;49.014;12.052;2023-03-01T11:48:39;98166.00;;;9.70
19040;BMP180;9652;49.014;12.052;2023-03-01T11:51:22;98164.00;;;9.70
19040;BMP180;9652;49.014;12.052;2023-03-01T11:54:18;98154.00;;;9.80
19040;BMP180;9652;49.014;12.052;2023-03-01T11:56:55;98151.00;;;9.80
19040;BMP180;9652;49.014;12.052;2023-03-01T12:03:23;98110.00;;;9.90
19040;BMP180;9652;49.014;12.052;2023-03-01T12:06:26;98140.00;;;9.90
19040;BMP180;9652;49.014;12.052;2023-03-01T12:09:17;98124.00;;;9.90
19040;BMP180;9652;49.014;12.052;2023-03-01T12:15:10;98128.00;;;10.00
19040;BMP180;9652;49.014;12.052;2023-03-01T12:18:02;98122.00;;;10.00
19040;BMP180;9652;49.014;12.052;2023-03-01T12:20:49;98101.00;;;10.00
19040;BMP180;9652;49.014;12.052;2023-03-01T12:23:50;98112.00;;;10.10
19040;BMP180;9652;49.014;12.052;2023-03-01T12:26:29;98111.00;;;10.20
19040;BMP180;9652;49.014;12.052;2023-03-01T12:29:23;98109.00;;;10.20
19040;BMP180;9652;49.014;12.052;2023-03-01T12:32:35;98103.00;;;10.30
19040;BMP180;9652;49.014;12.052;2023-03-01T12:35:36;98107.00;;;10.30
19040;BMP180;9652;49.014;12.052;2023-03-01T12:38:24;98088.00;;;10.30
19040;BMP180;9652;49.014;12.052;2023-03-01T12:41:34;98101.00;;;10.30
19040;BMP180;9652;49.014;12.052;2023-03-01T12:44:22;98109.00;;;10.30
19040;BMP180;9652;49.014;12.052;2023-03-01T12:47:07;98093.00;;;10.30
19040;BMP180;9652;49.014;12.052;2023-03-01T12:49:44;98101.00;;;10.30
19040;BMP180;9652;49.014;12.052;2023-03-01T12:52:18;98088.00;;;10.30
19040;BMP180;9652;49.014;12.052;2023-03-01T12:54:49;98100.00;;;10.40
19040;BMP180;9652;49.014;12.052;2023-03-01T12:57:27;98080.00;;;10.40
19040;BMP180;9652;49.014;12.052;2023-03-01T13:00:27;98082.00;;;10.40
19040;BMP180;9652;49.014;12.052;2023-03-01T13:03:02;98074.00;;;10.40
19040;BMP180;9652;49.014;12.052;2023-03-01T13:05:47;98071.00;;;10.40
19040;BMP180;9652;49.014;12.052;2023-03-01T13:08:26;98060.00;;;10.50
19040;BMP180;9652;49.014;12.052;2023-03-01T13:11:00;98063.00;;;10.50
19040;BMP180;9652;49.014;12.052;2023-03-01T13:13:31;98074.00;;;10.60
19040;BMP180;9652;49.014;12.052;2023-03-01T13:16:39;98066.00;;;10.60
19040;BMP180;9652;49.014;12.052;2023-03-01T13:19:13;98065.00;;;10.60
19040;BMP180;9652;49.014;12.052;2023-03-01T13:21:42;98056.00;;;10.70
19040;BMP180;9652;49.014;12.052;2023-03-01T13:24:29;98060.00;;;10.70
19040;BMP180;9652;49.014;12.052;2023-03-01T13:27:20;98052.00;;;10.70
19040;BMP180;9652;49.014;12.052;2023-03-01T13:29:54;98055.00;;;10.70
19040;BMP180;9652;49.014;12.052;2023-03-01T13:32:23;98062.00;;;10.80
19040;BMP180;9652;49.014;12.052;2023-03-01T13:35:01;98070.00;;;10.80
19040;BMP180;9652;49.014;12.052;2023-03-01T13:37:35;98061.00;;;10.90
19040;BMP180;9652;49.014;12.052;2023-03-01T13:43:31;98063.00;;;10.90
19040;BMP180;9652;49.014;12.052;2023-03-01T13:46:01;98075.00;;;11.00
19040;BMP180;9652;49.014;12.052;2023-03-01T13:48:31;98069.00;;;11.00
19040;BMP180;9652;49.014;12.052;2023-03-01T13:51:03;98065.00;;;11.00
19040;BMP180;9652;49.014;12.052;2023-03-01T13:53:36;98070.00;;;11.10
19040;BMP180;9652;49.014;12.052;2023-03-01T13:56:09;98056.00;;;11.10
19040;BMP180;9652;49.014;12.052;2023-03-01T13:58:49;98069.00;;;11.10
19040;BMP180;9652;49.014;12.052;2023-03-01T14:01:33;98069.00;;;11.10
19040;BMP180;9652;49.014;12.052;2023-03-01T14:04:03;98068.00;;;11.20
19040;BMP180;9652;49.014;12.052;2023-03-01T14:06:32;98059.00;;;11.20
19040;BMP180;9652;49.014;12.052;2023-03-01T14:09:10;98075.00;;;11.20
19040;BMP180;9652;49.014;12.052;2023-03-01T14:12:02;98069.00;;;11.10
19040;BMP180;9652;49.014;12.052;2023-03-01T14:14:48;98072.00;;;11.20
19040;BMP180;9652;49.014;12.052;2023-03-01T14:17:46;98072.00;;;11.20
19040;BMP180;9652;49.014;12.052;2023-03-01T14:20:19;98069.00;;;11.20
19040;BMP180;9652;49.014;12.052;2023-03-01T14:22:49;98070.00;;;11.20
19040;BMP180;9652;49.014;12.052;2023-03-01T14:25:26;98062.00;;;11.20
19040;BMP180;9652;49.014;12.052;2023-03-01T14:28:00;98059.00;;;11.20
19040;BMP180;9652;49.014;12.052;2023-03-01T14:30:34;98059.00;;;11.20
19040;BMP180;9652;49.014;12.052;2023-03-01T14:33:18;98057.00;;;11.30
19040;BMP180;9652;49.014;12.052;2023-03-01T14:35:55;98057.00;;;11.30
19040;BMP180;9652;49.014;12.052;2023-03-01T14:38:27;98053.00;;;11.40
19040;BMP180;9652;49.014;12.052;2023-03-01T14:40:58;98062.00;;;11.40
19040;BMP180;9652;49.014;12.052;2023-03-01T14:43:29;98053.00;;;11.50
19040;BMP180;9652;49.014;12.052;2023-03-01T14:45:57;98063.00;;;11.60
19040;BMP180;9652;49.014;12.052;2023-03-01T14:48:28;98055.00;;;11.60
19040;BMP180;9652;49.014;12.052;2023-03-01T14:50:56;98059.00;;;11.70
19040;BMP180;9652;49.014;12.052;2023-03-01T14:53:28;98052.00;;;11.70
19040;BMP180;9652;49.014;12.052;2023-03-01T14:56:00;98055.00;;;11.70
19040;BMP180;9652;49.014;12.052;2023-03-01T14:58:30;98056.00;;;11.70